sensor_id;sensor_type;location;lat;lon;timestamp;pressure;altitude;pressure_sealevel;temperature
40047;BMP280;31510;48.122;11.576;2023-03-13T00:00:49;95344.56;;;7.09
40047;BMP280;31510;48.122;11.576;2023-03-13T00:03:14;95333.66;;;7.07
40047;BMP280;31510;48.122;11.576;2023-03-13T00:05:39;95332.59;;;7.05
40047;BMP280;31510;48.122;11.576;2023-03-13T00:08:05;95331.41;;;7.06
40047;BMP280;31510;48.122;11.576;2023-03-13T00:10:30;95323.56;;;7.02
40047;BMP280;31510;48.122;11.576;2023-03-13T00:12:55;95318.72;;;7.01
40047;BMP280;31510;48.122;11.576;2023-03-13T00:15:21;95311.19;;;6.99
40047;BMP280;31510;48.122;11.576;2023-03-13T00:17:46;95306.41;;;6.94
40047;BMP280;31510;48.122;11.576;2023-03-13T00:20:11;95309.16;;;6.91
40047;BMP280;31510;48.122;11.576;2023-03-13T00:22:37;95313.41;;;6.88
40047;BMP280;31510;48.122;11.576;2023-03-13T00:25:02;95302.91;;;6.85
40047;BMP280;31510;48.122;11.576;2023-03-13T00:27:31;95304.06;;;6.84
40047;BMP280;31510;48.122;11.576;2023-03-13T00:29:57;95304.78;;;6.84
40047;BMP280;31510;48.122;11.576;2023-03-13T00:32:22;95299.91;;;6.83
40047;BMP280;31510;48.122;11.576;2023-03-13T00:34:47;95298.44;;;6.82
40047;BMP280;31510;48.122;11.576;2023-03-13T00:37:13;95298.84;;;6.80
40047;BMP280;31510;48.122;11.576;2023-03-13T00:39:38;95286.78;;;6.79
40047;BMP280;31510;48.122;11.576;2023-03-13T00:42:04;95280.41;;;6.77
40047;BMP280;31510;48.122;11.576;2023-03-13T00:44:29;95281.50;;;6.79
40047;BMP280;31510;48.122;11.576;2023-03-13T00:46:54;95272.88;;;6.75
40047;BMP280;31510;48.122;11.576;2023-03-13T00:49:20;95271.94;;;6.70
40047;BMP280;31510;48.122;11.576;2023-03-13T00:51:45;95266.31;;;6.68
40047;BMP280;31510;48.122;11.576;2023-03-13T00:54:10;95261.84;;;6.65
40047;BMP280;31510;48.122;11.576;2023-03-13T00:56:36;95273.72;;;6.60
40047;BMP280;31510;48.122;11.576;2023-03-13T00:59:01;95265.44;;;6.58
40047;BMP280;31510;48.122;11.576;2023-03-13T01:01:31;95263.97;;;6.57
40047;BMP280;31510;48.122;11.576;2023-03-13T01:04:03;95263.66;;;6.55
40047;BMP280;31510;48.122;11.576;2023-03-13T01:06:30;95268.94;;;6.55
40047;BMP280;31510;48.122;11.576;2023-03-13T01:08:55;95264.78;;;6.54
40047;BMP280;31510;48.122;11.576;2023-03-13T01:11:23;95250.81;;;6.54
40047;BMP280;31510;48.122;11.576;2023-03-13T01:13:53;95253.78;;;6.56
40047;BMP280;31510;48.122;11.576;2023-03-13T01:16:20;95256.84;;;6.54
40047;BMP280;31510;48.122;11.576;2023-03-13T01:18:51;95251.97;;;6.53
40047;BMP280;31510;48.122;11.576;2023-03-13T01:21:17;95249.00;;;6.51
40047;BMP280;31510;48.122;11.576;2023-03-13T01:23:44;95242.66;;;6.48
40047;BMP280;31510;48.122;11.576;2023-03-13T01:26:09;95240.53;;;6.43
40047;BMP280;31510;48.122;11.576;2023-03-13T01:28:36;95244.41;;;6.39
40047;BMP280;31510;48.122;11.576;2023-03-13T01:31:10;95235.22;;;6.31
40047;BMP280;31510;48.122;11.576;2023-03-13T01:33:36;95233.06;;;6.26
40047;BMP280;31510;48.122;11.576;2023-03-13T01:36:02;95235.00;;;6.26
40047;BMP280;31510;48.122;11.576;2023-03-13T01:38:27;95233.28;;;6.19
40047;BMP280;31510;48.122;11.576;2023-03-13T01:40:52;95226.69;;;6.11
40047;BMP280;31510;48.122;11.576;2023-03-13T01:43:29;95241.50;;;6.09
40047;BMP280;31510;48.122;11.576;2023-03-13T01:51:48;95237.97;;;5.99
40047;BMP280;31510;48.122;11.576;2023-03-13T01:54:20;95239.03;;;6.02
40047;BMP280;31510;48.122;11.576;2023-03-13T01:56:55;95228.78;;;6.04
40047;BMP280;31510;48.122;11.576;2023-03-13T01:59:25;95224.16;;;6.08
40047;BMP280;31510;48.122;11.576;2023-03-13T02:01:55;95224.88;;;6.08
40047;BMP280;31510;48.122;11.576;2023-03-13T02:04:22;95214.06;;;6.03
40047;BMP280;31510;48.122;11.576;2023-03-13T02:06:51;95218.63;;;6.02
40047;BMP280;31510;48.122;11.576;2023-03-13T02:09:21;95205.41;;;6.02
40047;BMP280;31510;48.122;11.576;2023-03-13T02:11:56;95212.25;;;6.00
40047;BMP280;31510;48.122;11.576;2023-03-13T02:14:26;95210.03;;;5.98
40047;BMP280;31510;48.122;11.576;2023-03-13T02:16:54;95209.28;;;5.98
40047;BMP280;31510;48.122;11.576;2023-03-13T02:27:44;95200.16;;;5.87
40047;BMP280;31510;48.122;11.576;2023-03-13T02:30:12;95211.91;;;5.86
40047;BMP280;31510;48.122;11.576;2023-03-13T02:32:39;95209.56;;;5.88
40047;BMP280;31510;48.122;11.576;2023-03-13T02:35:10;95210.84;;;5.83
40047;BMP280;31510;48.122;11.576;2023-03-13T02:37:36;95209.53;;;5.75
40047;BMP280;31510;48.122;11.576;2023-03-13T02:40:06;95210.78;;;5.71
40047;BMP280;31510;48.122;11.576;2023-03-13T02:42:36;95214.97;;;5.68
40047;BMP280;31510;48.122;11.576;2023-03-13T02:45:02;95220.34;;;5.65
40047;BMP280;31510;48.122;11.576;2023-03-13T02:47:27;95219.63;;;5.64
40047;BMP280;31510;48.122;11.576;2023-03-13T02:49:53;95219.72;;;5.61
40047;BMP280;31510;48.122;11.576;2023-03-13T02:52:32;95223.25;;;5.54
40047;BMP280;31510;48.122;11.576;2023-03-13T02:55:06;95221.97;;;5.47
40047;BMP280;31510;48.122;11.576;2023-03-13T02:57:32;95219.19;;;5.38
40047;BMP280;31510;48.122;11.576;2023-03-13T02:59:58;95226.53;;;5.30
40047;BMP280;31510;48.122;11.576;2023-03-13T03:02:23;95220.91;;;5.28
40047;BMP280;31510;48.122;11.576;2023-03-13T03:04:49;95228.50;;;5.26
40047;BMP280;31510;48.122;11.576;2023-03-13T03:07:14;95217.94;;;5.26
40047;BMP280;31510;48.122;11.576;2023-03-13T03:09:39;95223.63;;;5.25
40047;BMP280;31510;48.122;11.576;2023-03-13T03:12:05;95210.25;;;5.16
40047;BMP280;31510;48.122;11.576;2023-03-13T03:14:30;95213.75;;;5.13
40047;BMP280;31510;48.122;11.576;2023-03-13T03:16:56;95214.56;;;5.10
40047;BMP280;31510;48.122;11.576;2023-03-13T03:19:21;95217.94;;;5.11
40047;BMP280;31510;48.122;11.576;2023-03-13T03:21:46;95220.84;;;5.16
40047;BMP280;31510;48.122;11.576;2023-03-13T03:24:13;95214.72;;;5.19
40047;BMP280;31510;48.122;11.576;2023-03-13T03:26:38;95214.72;;;5.19
40047;BMP280;31510;48.122;11.576;2023-03-13T03:29:04;95223.38;;;5.19
40047;BMP280;31510;48.122;11.576;2023-03-13T03:31:29;95212.31;;;5.24
40047;BMP280;31510;48.122;11.576;2023-03-13T03:33:55;95218.34;;;5.25
40047;BMP280;31510;48.122;11.576;2023-03-13T03:36:22;95220.25;;;5.24
40047;BMP280;31510;48.122;11.576;2023-03-13T03:38:47;95216.47;;;5.25
40047;BMP280;31510;48.122;11.576;2023-03-13T03:41:13;95210.31;;;5.28
40047;BMP280;31510;48.122;11.576;2023-03-13T03:43:39;95206.44;;;5.33
40047;BMP280;31510;48.122;11.576;2023-03-13T03:46:06;95205.22;;;5.37
40047;BMP280;31510;48.122;11.576;2023-03-13T03:48:31;95207.44;;;5.39
40047;BMP280;31510;48.122;11.576;2023-03-13T03:50:57;95208.09;;;5.43
40047;BMP280;31510;48.122;11.576;2023-03-13T03:53:23;95203.56;;;5.43
40047;BMP280;31510;48.122;11.576;2023-03-13T03:55:48;95200.16;;;5.43
40047;BMP280;31510;48.122;11.576;2023-03-13T03:58:14;95195.94;;;5.45
40047;BMP280;31510;48.122;11.576;2023-03-13T04:00:42;95194.34;;;5.48
40047;BMP280;31510;48.122;11.576;2023-03-13T04:03:08;95200.00;;;5.50
40047;BMP280;31510;48.122;11.576;2023-03-13T04:05:34;95195.75;;;5.52
40047;BMP280;31510;48.122;11.576;2023-03-13T04:07:59;95199.78;;;5.56
40047;BMP280;31510;48.122;11.576;2023-03-13T04:10:24;95189.22;;;5.56
40047;BMP280;31510;48.122;11.576;2023-03-13T04:12:50;95183.19;;;5.56
40047;BMP280;31510;48.122;11.576;2023-03-13T04:15:15;95177.16;;;5.55
40047;BMP280;31510;48.122;11.576;2023-03-13T04:17:40;95177.16;;;5.55
40047;BMP280;31510;48.122;11.576;2023-03-13T04:20:06;95175.25;;;5.56
40047;BMP280;31510;48.122;11.576;2023-03-13T04:22:32;95167.63;;;5.58
40047;BMP280;31510;48.122;11.576;2023-03-13T04:24:58;95160.13;;;5.56
40047;BMP280;31510;48.122;11.576;2023-03-13T04:27:24;95143.84;;;5.58
40047;BMP280;31510;48.122;11.576;2023-03-13T04:29:49;95146.47;;;5.58
40047;BMP280;31510;48.122;11.576;2023-03-13T04:32:15;95144.59;;;5.58
40047;BMP280;31510;48.122;11.576;2023-03-13T04:34:40;95141.50;;;5.60
40047;BMP280;31510;48.122;11.576;2023-03-13T04:37:05;95131.91;;;5.66
40047;BMP280;31510;48.122;11.576;2023-03-13T04:39:31;95129.19;;;5.69
40047;BMP280;31510;48.122;11.576;2023-03-13T04:41:56;95126.53;;;5.69
40047;BMP280;31510;48.122;11.576;2023-03-13T04:44:22;95128.44;;;5.69
40047;BMP280;31510;48.122;11.576;2023-03-13T04:46:47;95121.56;;;5.71
40047;BMP280;31510;48.122;11.576;2023-03-13T04:49:13;95113.88;;;5.77
40047;BMP280;31510;48.122;11.576;2023-03-13T04:51:42;95117.94;;;5.81
40047;BMP280;31510;48.122;11.576;2023-03-13T04:54:08;95105.34;;;5.85
40047;BMP280;31510;48.122;11.576;2023-03-13T04:56:34;95109.88;;;5.85
40047;BMP280;31510;48.122;11.576;2023-03-13T04:58:59;95101.81;;;5.88
40047;BMP280;31510;48.122;11.576;2023-03-13T05:01:25;95102.91;;;5.91
40047;BMP280;31510;48.122;11.576;2023-03-13T05:03:51;95095.69;;;5.91
40047;BMP280;31510;48.122;11.576;2023-03-13T05:06:16;95098.34;;;5.91
40047;BMP280;31510;48.122;11.576;2023-03-13T05:08:42;95093.06;;;5.91
40047;BMP280;31510;48.122;11.576;2023-03-13T05:11:07;95088.06;;;5.93
40047;BMP280;31510;48.122;11.576;2023-03-13T05:13:32;95092.94;;;5.95
40047;BMP280;31510;48.122;11.576;2023-03-13T05:15:58;95094.44;;;5.96
40047;BMP280;31510;48.122;11.576;2023-03-13T05:18:23;95077.38;;;5.96
40047;BMP280;31510;48.122;11.576;2023-03-13T05:20:48;95081.22;;;5.96
40047;BMP280;31510;48.122;11.576;2023-03-13T05:23:14;95080.81;;;5.97
40047;BMP280;31510;48.122;11.576;2023-03-13T05:25:39;95072.09;;;5.96
40047;BMP280;31510;48.122;11.576;2023-03-13T05:28:05;95067.13;;;5.98
40047;BMP280;31510;48.122;11.576;2023-03-13T05:30:30;95066.38;;;5.98
40047;BMP280;31510;48.122;11.576;2023-03-13T05:32:55;95065.97;;;5.99
40047;BMP280;31510;48.122;11.576;2023-03-13T05:35:21;95072.41;;;5.98
40047;BMP280;31510;48.122;11.576;2023-03-13T05:37:46;95056.88;;;6.00
40047;BMP280;31510;48.122;11.576;2023-03-13T05:40:12;95056.00;;;6.03
40047;BMP280;31510;48.122;11.576;2023-03-13T05:42:38;95050.00;;;6.03
40047;BMP280;31510;48.122;11.576;2023-03-13T05:45:03;95049.47;;;6.08
40047;BMP280;31510;48.122;11.576;2023-03-13T05:47:29;95048.28;;;6.09
40047;BMP280;31510;48.122;11.576;2023-03-13T05:49:54;95044.06;;;6.11
40047;BMP280;31510;48.122;11.576;2023-03-13T05:52:19;95053.47;;;6.12
40047;BMP280;31510;48.122;11.576;2023-03-13T05:54:45;95048.84;;;6.16
40047;BMP280;31510;48.122;11.576;2023-03-13T05:57:10;95065.03;;;6.18
40047;BMP280;31510;48.122;11.576;2023-03-13T05:59:35;95060.06;;;6.20
40047;BMP280;31510;48.122;11.576;2023-03-13T06:02:01;95059.63;;;6.22
40047;BMP280;31510;48.122;11.576;2023-03-13T06:04:26;95050.09;;;6.24
40047;BMP280;31510;48.122;11.576;2023-03-13T06:06:51;95049.66;;;6.26
40047;BMP280;31510;48.122;11.576;2023-03-13T06:09:16;95032.19;;;6.28
40047;BMP280;31510;48.122;11.576;2023-03-13T06:11:42;95029.84;;;6.30
40047;BMP280;31510;48.122;11.576;2023-03-13T06:14:07;95018.41;;;6.33
40047;BMP280;31510;48.122;11.576;2023-03-13T06:16:33;95007.59;;;6.40
40047;BMP280;31510;48.122;11.576;2023-03-13T06:18:58;95008.53;;;6.46
40047;BMP280;31510;48.122;11.576;2023-03-13T06:21:24;95006.06;;;6.51
40047;BMP280;31510;48.122;11.576;2023-03-13T06:23:49;95008.50;;;6.58
40047;BMP280;31510;48.122;11.576;2023-03-13T06:26:15;95005.31;;;6.63
40047;BMP280;31510;48.122;11.576;2023-03-13T06:28:40;95010.81;;;6.69
40047;BMP280;31510;48.122;11.576;2023-03-13T06:31:06;95015.13;;;6.75
40047;BMP280;31510;48.122;11.576;2023-03-13T06:33:32;95016.06;;;6.81
40047;BMP280;31510;48.122;11.576;2023-03-13T06:36:00;95005.22;;;6.88
40047;BMP280;31510;48.122;11.576;2023-03-13T06:38:26;95006.19;;;6.94
40047;BMP280;31510;48.122;11.576;2023-03-13T06:40:52;95007.84;;;7.00
40047;BMP280;31510;48.122;11.576;2023-03-13T06:43:18;95002.28;;;7.07
40047;BMP280;31510;48.122;11.576;2023-03-13T06:45:43;95007.66;;;7.16
40047;BMP280;31510;48.122;11.576;2023-03-13T06:48:09;95004.75;;;7.23
40047;BMP280;31510;48.122;11.576;2023-03-13T06:50:37;94999.63;;;7.28
40047;BMP280;31510;48.122;11.576;2023-03-13T06:53:02;95003.97;;;7.35
40047;BMP280;31510;48.122;11.576;2023-03-13T06:55:27;94999.25;;;7.39
40047;BMP280;31510;48.122;11.576;2023-03-13T06:57:52;95000.63;;;7.43
40047;BMP280;31510;48.122;11.576;2023-03-13T07:00:19;95008.47;;;7.47
40047;BMP280;31510;48.122;11.576;2023-03-13T07:02:44;95001.53;;;7.49
40047;BMP280;31510;48.122;11.576;2023-03-13T07:05:09;95006.72;;;7.53
40047;BMP280;31510;48.122;11.576;2023-03-13T07:07:35;95011.16;;;7.55
40047;BMP280;31510;48.122;11.576;2023-03-13T07:10:00;94993.75;;;7.54
40047;BMP280;31510;48.122;11.576;2023-03-13T07:12:26;94983.91;;;7.55
40047;BMP280;31510;48.122;11.576;2023-03-13T07:14:51;95000.41;;;7.59
40047;BMP280;31510;48.122;11.576;2023-03-13T07:17:16;95007.94;;;7.60
40047;BMP280;31510;48.122;11.576;2023-03-13T07:19:42;95009.41;;;7.61
40047;BMP280;31510;48.122;11.576;2023-03-13T07:22:07;94995.00;;;7.62
40047;BMP280;31510;48.122;11.576;2023-03-13T07:24:33;95000.16;;;7.66
40047;BMP280;31510;48.122;11.576;2023-03-13T07:26:58;94998.84;;;7.70
40047;BMP280;31510;48.122;11.576;2023-03-13T07:29:23;94993.84;;;7.72
40047;BMP280;31510;48.122;11.576;2023-03-13T07:31:49;94997.13;;;7.76
40047;BMP280;31510;48.122;11.576;2023-03-13T07:34:14;94990.19;;;7.79
40047;BMP280;31510;48.122;11.576;2023-03-13T07:36:40;94991.56;;;7.83
40047;BMP280;31510;48.122;11.576;2023-03-13T07:39:06;94986.53;;;7.85
40047;BMP280;31510;48.122;11.576;2023-03-13T07:41:32;94985.66;;;7.88
40047;BMP280;31510;48.122;11.576;2023-03-13T07:43:57;94986.56;;;7.94
40047;BMP280;31510;48.122;11.576;2023-03-13T07:46:23;94984.22;;;7.96
40047;BMP280;31510;48.122;11.576;2023-03-13T07:48:48;94982.88;;;8.00
40047;BMP280;31510;48.122;11.576;2023-03-13T07:51:19;94985.75;;;8.06
40047;BMP280;31510;48.122;11.576;2023-03-13T07:53:45;94974.22;;;8.09
40047;BMP280;31510;48.122;11.576;2023-03-13T07:56:16;94981.66;;;8.14
40047;BMP280;31510;48.122;11.576;2023-03-13T07:58:42;94994.78;;;8.17
40047;BMP280;31510;48.122;11.576;2023-03-13T08:01:10;94993.78;;;8.24
40047;BMP280;31510;48.122;11.576;2023-03-13T08:03:35;94992.75;;;8.30
40047;BMP280;31510;48.122;11.576;2023-03-13T08:06:08;94987.47;;;8.39
40047;BMP280;31510;48.122;11.576;2023-03-13T08:08:33;94998.84;;;8.48
40047;BMP280;31510;48.122;11.576;2023-03-13T08:11:00;94993.25;;;8.55
40047;BMP280;31510;48.122;11.576;2023-03-13T08:13:26;94987.66;;;8.62
40047;BMP280;31510;48.122;11.576;2023-03-13T08:15:51;94992.38;;;8.76
40047;BMP280;31510;48.122;11.576;2023-03-13T08:18:17;94972.59;;;8.77
40047;BMP280;31510;48.122;11.576;2023-03-13T08:20:42;94972.75;;;8.82
40047;BMP280;31510;48.122;11.576;2023-03-13T08:23:07;94977.78;;;8.89
40047;BMP280;31510;48.122;11.576;2023-03-13T08:25:32;94967.13;;;8.98
40047;BMP280;31510;48.122;11.576;2023-03-13T08:27:58;94975.84;;;9.08
40047;BMP280;31510;48.122;11.576;2023-03-13T08:30:23;94967.41;;;9.18
40047;BMP280;31510;48.122;11.576;2023-03-13T08:32:48;94969.75;;;9.25
40047;BMP280;31510;48.122;11.576;2023-03-13T08:35:13;94965.78;;;9.29
40047;BMP280;31510;48.122;11.576;2023-03-13T08:37:39;94977.72;;;9.34
40047;BMP280;31510;48.122;11.576;2023-03-13T08:40:04;94979.22;;;9.35
40047;BMP280;31510;48.122;11.576;2023-03-13T08:42:36;94992.53;;;9.35
40047;BMP280;31510;48.122;11.576;2023-03-13T08:45:02;94989.56;;;9.33
40047;BMP280;31510;48.122;11.576;2023-03-13T08:47:27;94981.16;;;9.34
40047;BMP280;31510;48.122;11.576;2023-03-13T08:49:53;94979.50;;;9.37
40047;BMP280;31510;48.122;11.576;2023-03-13T08:52:19;94972.88;;;9.41
40047;BMP280;31510;48.122;11.576;2023-03-13T08:54:47;94974.91;;;9.46
40047;BMP280;31510;48.122;11.576;2023-03-13T08:57:12;94982.72;;;9.50
40047;BMP280;31510;48.122;11.576;2023-03-13T08:59:37;94977.09;;;9.56
40047;BMP280;31510;48.122;11.576;2023-03-13T09:02:03;94966.56;;;9.62
40047;BMP280;31510;48.122;11.576;2023-03-13T09:04:28;94979.41;;;9.72
40047;BMP280;31510;48.122;11.576;2023-03-13T09:06:53;94963.69;;;9.83
40047;BMP280;31510;48.122;11.576;2023-03-13T09:09:19;94964.41;;;10.01
40047;BMP280;31510;48.122;11.576;2023-03-13T09:11:44;94965.97;;;10.17
40047;BMP280;31510;48.122;11.576;2023-03-13T09:14:10;94961.72;;;10.34
40047;BMP280;31510;48.122;11.576;2023-03-13T09:16:35;94961.78;;;10.48
40047;BMP280;31510;48.122;11.576;2023-03-13T09:19:01;94959.91;;;10.63
40047;BMP280;31510;48.122;11.576;2023-03-13T09:21:28;94947.06;;;10.75
40047;BMP280;31510;48.122;11.576;2023-03-13T09:23:54;94955.28;;;10.86
40047;BMP280;31510;48.122;11.576;2023-03-13T09:26:20;94943.63;;;10.98
40047;BMP280;31510;48.122;11.576;2023-03-13T09:28:46;94943.00;;;11.03
40047;BMP280;31510;48.122;11.576;2023-03-13T09:31:14;94940.16;;;11.07
40047;BMP280;31510;48.122;11.576;2023-03-13T09:33:40;94937.59;;;11.12
40047;BMP280;31510;48.122;11.576;2023-03-13T09:36:06;94934.09;;;11.20
40047;BMP280;31510;48.122;11.576;2023-03-13T09:38:31;94932.53;;;11.28
40047;BMP280;31510;48.122;11.576;2023-03-13T09:41:03;94941.94;;;11.38
40047;BMP280;31510;48.122;11.576;2023-03-13T09:44:01;94930.47;;;11.47
40047;BMP280;31510;48.122;11.576;2023-03-13T09:49:02;94914.50;;;11.66
40047;BMP280;31510;48.122;11.576;2023-03-13T09:51:33;94914.88;;;11.74
40047;BMP280;31510;48.122;11.576;2023-03-13T09:56:33;94912.81;;;11.97
40047;BMP280;31510;48.122;11.576;2023-03-13T09:59:10;94908.59;;;12.11
40047;BMP280;31510;48.122;11.576;2023-03-13T10:01:37;94908.56;;;12.25
40047;BMP280;31510;48.122;11.576;2023-03-13T10:04:10;94915.06;;;12.38
40047;BMP280;31510;48.122;11.576;2023-03-13T10:06:42;94902.63;;;12.55
40047;BMP280;31510;48.122;11.576;2023-03-13T10:09:29;94903.03;;;12.68
40047;BMP280;31510;48.122;11.576;2023-03-13T10:17:21;94873.03;;;13.04
40047;BMP280;31510;48.122;11.576;2023-03-13T10:19:56;94876.53;;;13.15
40047;BMP280;31510;48.122;11.576;2023-03-13T10:22:25;94878.88;;;13.27
40047;BMP280;31510;48.122;11.576;2023-03-13T10:24:58;94872.38;;;13.39
40047;BMP280;31510;48.122;11.576;2023-03-13T10:27:24;94877.56;;;13.48
40047;BMP280;31510;48.122;11.576;2023-03-13T10:29:49;94873.47;;;13.53
40047;BMP280;31510;48.122;11.576;2023-03-13T10:32:16;94883.75;;;13.59
40047;BMP280;31510;48.122;11.576;2023-03-13T10:37:15;94869.78;;;13.81
40047;BMP280;31510;48.122;11.576;2023-03-13T10:39:41;94867.69;;;13.95
40047;BMP280;31510;48.122;11.576;2023-03-13T10:42:19;94862.94;;;14.10
40047;BMP280;31510;48.122;11.576;2023-03-13T10:44:45;94854.22;;;14.21
40047;BMP280;31510;48.122;11.576;2023-03-13T10:47:12;94857.16;;;14.28
40047;BMP280;31510;48.122;11.576;2023-03-13T10:49:49;94844.53;;;14.39
40047;BMP280;31510;48.122;11.576;2023-03-13T10:52:35;94844.53;;;14.39
40047;BMP280;31510;48.122;11.576;2023-03-13T10:55:09;94830.91;;;14.43
40047;BMP280;31510;48.122;11.576;2023-03-13T10:57:35;94830.22;;;14.59
40047;BMP280;31510;48.122;11.576;2023-03-13T11:02:52;94823.00;;;14.92
40047;BMP280;31510;48.122;11.576;2023-03-13T11:07:51;94824.28;;;15.18
40047;BMP280;31510;48.122;11.576;2023-03-13T11:10:25;94814.28;;;15.29
40047;BMP280;31510;48.122;11.576;2023-03-13T11:12:53;94815.00;;;15.30
40047;BMP280;31510;48.122;11.576;2023-03-13T11:15:44;94807.66;;;15.36
40047;BMP280;31510;48.122;11.576;2023-03-13T11:18:17;94820.38;;;15.46
40047;BMP280;31510;48.122;11.576;2023-03-13T11:20:45;94814.03;;;15.44
40047;BMP280;31510;48.122;11.576;2023-03-13T11:23:30;94803.78;;;15.42
40047;BMP280;31510;48.122;11.576;2023-03-13T11:26:01;94814.03;;;15.44
40047;BMP280;31510;48.122;11.576;2023-03-13T11:31:48;94803.50;;;15.57
40047;BMP280;31510;48.122;11.576;2023-03-13T11:34:21;94797.16;;;15.70
40047;BMP280;31510;48.122;11.576;2023-03-13T11:37:00;94782.47;;;15.88
40047;BMP280;31510;48.122;11.576;2023-03-13T11:51:15;94770.41;;;16.21
40047;BMP280;31510;48.122;11.576;2023-03-13T11:56:48;94762.50;;;16.34
40047;BMP280;31510;48.122;11.576;2023-03-13T12:01:59;94745.84;;;16.41
40047;BMP280;31510;48.122;11.576;2023-03-13T12:04:38;94741.44;;;16.43
40047;BMP280;31510;48.122;11.576;2023-03-13T12:07:15;94722.09;;;16.45
40047;BMP280;31510;48.122;11.576;2023-03-13T12:09:59;94747.50;;;16.55
40047;BMP280;31510;48.122;11.576;2023-03-13T12:17:35;94729.78;;;16.70
40047;BMP280;31510;48.122;11.576;2023-03-13T12:20:09;94716.81;;;16.69
40047;BMP280;31510;48.122;11.576;2023-03-13T12:22:46;94726.34;;;16.70
40047;BMP280;31510;48.122;11.576;2023-03-13T12:25:55;94725.41;;;16.67
40047;BMP280;31510;48.122;11.576;2023-03-13T12:28:40;94719.81;;;16.60
40047;BMP280;31510;48.122;11.576;2023-03-13T12:34:21;94711.44;;;16.69
40047;BMP280;31510;48.122;11.576;2023-03-13T12:39:34;94698.66;;;16.75
40047;BMP280;31510;48.122;11.576;2023-03-13T12:44:32;94690.38;;;16.73
40047;BMP280;31510;48.122;11.576;2023-03-13T12:47:06;94677.59;;;16.78
40047;BMP280;31510;48.122;11.576;2023-03-13T12:49:46;94681.47;;;16.83
40047;BMP280;31510;48.122;11.576;2023-03-13T12:54:54;94652.09;;;16.85
40047;BMP280;31510;48.122;11.576;2023-03-13T13:00:15;94643.25;;;16.90
40047;BMP280;31510;48.122;11.576;2023-03-13T13:02:43;94640.28;;;16.93
40047;BMP280;31510;48.122;11.576;2023-03-13T13:05:18;94636.13;;;16.92
40047;BMP280;31510;48.122;11.576;2023-03-13T13:07:52;94637.88;;;16.90
40047;BMP280;31510;48.122;11.576;2023-03-13T13:10:23;94632.47;;;16.90
40047;BMP280;31510;48.122;11.576;2023-03-13T13:15:43;94627.59;;;16.88
40047;BMP280;31510;48.122;11.576;2023-03-13T13:18:26;94621.72;;;16.90
40047;BMP280;31510;48.122;11.576;2023-03-13T13:23:41;94622.72;;;16.87
40047;BMP280;31510;48.122;11.576;2023-03-13T13:28:59;94613.53;;;17.01
40047;BMP280;31510;48.122;11.576;2023-03-13T13:37:02;94610.78;;;17.06
40047;BMP280;31510;48.122;11.576;2023-03-13T13:39:43;94604.56;;;17.17
40047;BMP280;31510;48.122;11.576;2023-03-13T13:47:40;94590.38;;;17.16
40047;BMP280;31510;48.122;11.576;2023-03-13T13:50:23;94588.19;;;17.15
40047;BMP280;31510;48.122;11.576;2023-03-13T13:52:50;94582.84;;;17.09
40047;BMP280;31510;48.122;11.576;2023-03-13T13:58:10;94567.69;;;17.06
40047;BMP280;31510;48.122;11.576;2023-03-13T14:00:40;94565.28;;;17.03
40047;BMP280;31510;48.122;11.576;2023-03-13T14:03:19;94546.56;;;17.16
40047;BMP280;31510;48.122;11.576;2023-03-13T14:05:47;94550.38;;;17.25
40047;BMP280;31510;48.122;11.576;2023-03-13T14:10:40;94525.91;;;17.42
40047;BMP280;31510;48.122;11.576;2023-03-13T14:13:15;94532.94;;;17.50
40047;BMP280;31510;48.122;11.576;2023-03-13T14:15:44;94529.50;;;17.50
40047;BMP280;31510;48.122;11.576;2023-03-13T14:18:29;94530.22;;;17.50
40047;BMP280;31510;48.122;11.576;2023-03-13T14:21:03;94524.84;;;17.50
40047;BMP280;31510;48.122;11.576;2023-03-13T14:23:42;94509.19;;;17.49
40047;BMP280;31510;48.122;11.576;2023-03-13T14:26:28;94499.16;;;17.49
40047;BMP280;31510;48.122;11.576;2023-03-13T14:28:57;94495.78;;;17.43
40047;BMP280;31510;48.122;11.576;2023-03-13T14:34:00;94482.47;;;17.32
40047;BMP280;31510;48.122;11.576;2023-03-13T14:36:26;94473.81;;;17.21
40047;BMP280;31510;48.122;11.576;2023-03-13T14:38:59;94475.13;;;17.09
40047;BMP280;31510;48.122;11.576;2023-03-13T14:41:42;94467.19;;;17.17
40047;BMP280;31510;48.122;11.576;2023-03-13T14:44:28;94467.75;;;17.33
40047;BMP280;31510;48.122;11.576;2023-03-13T14:46:57;94464.50;;;17.40
40047;BMP280;31510;48.122;11.576;2023-03-13T14:49:27;94459.09;;;17.40
40047;BMP280;31510;48.122;11.576;2023-03-13T14:52:03;94452.03;;;17.37
40047;BMP280;31510;48.122;11.576;2023-03-13T14:54:34;94440.97;;;17.22
40047;BMP280;31510;48.122;11.576;2023-03-13T14:59:34;94441.72;;;16.99
40047;BMP280;31510;48.122;11.576;2023-03-13T15:05:02;94420.03;;;16.92
40047;BMP280;31510;48.122;11.576;2023-03-13T15:07:38;94404.00;;;16.81
40047;BMP280;31510;48.122;11.576;2023-03-13T15:12:43;94400.78;;;16.64
40047;BMP280;31510;48.122;11.576;2023-03-13T15:15:09;94394.59;;;16.69
40047;BMP280;31510;48.122;11.576;2023-03-13T15:17:35;94389.50;;;16.66
40047;BMP280;31510;48.122;11.576;2023-03-13T15:20:00;94385.81;;;16.69
40047;BMP280;31510;48.122;11.576;2023-03-13T15:22:29;94380.34;;;16.74
40047;BMP280;31510;48.122;11.576;2023-03-13T15:24:55;94368.81;;;16.79
40047;BMP280;31510;48.122;11.576;2023-03-13T15:27:23;94370.13;;;16.91
40047;BMP280;31510;48.122;11.576;2023-03-13T15:29:49;94372.44;;;17.00
40047;BMP280;31510;48.122;11.576;2023-03-13T15:32:49;94356.81;;;16.98
40047;BMP280;31510;48.122;11.576;2023-03-13T15:35:23;94349.94;;;16.97
40047;BMP280;31510;48.122;11.576;2023-03-13T15:37:49;94341.97;;;16.92
40047;BMP280;31510;48.122;11.576;2023-03-13T15:40:15;94345.28;;;16.98
40047;BMP280;31510;48.122;11.576;2023-03-13T15:42:41;94339.41;;;16.99
40047;BMP280;31510;48.122;11.576;2023-03-13T15:45:07;94338.69;;;16.99
40047;BMP280;31510;48.122;11.576;2023-03-13T15:47:32;94339.69;;;16.96
40047;BMP280;31510;48.122;11.576;2023-03-13T15:49:57;94324.13;;;16.89
40047;BMP280;31510;48.122;11.576;2023-03-13T15:52:23;94321.78;;;16.80
40047;BMP280;31510;48.122;11.576;2023-03-13T15:54:49;94325.75;;;16.79
40047;BMP280;31510;48.122;11.576;2023-03-13T15:57:17;94315.97;;;16.76